Time;durP1;ratioP1;P1;durP2;ratioP2;P2;SDS_P1;SDS_P2;PMS_P1;PMS_P2;Temp;Humidity;BMP_temperature;BMP_pressure;BME280_temperature;BME280_humidity;BME280_pressure;Samples;Min_cycle;Max_cycle;Signal;HPM_P1;HPM_P2
2023/09/09 00:01:36;;;;;;;10.05;7.45;;;19.80;99.90;;;;;;5036479;28;20044;-70
2023/09/09 00:04:03;;;;;;;8.60;6.82;;;19.70;99.90;;;;;;5036073;28;20049;-70
2023/09/09 00:06:29;;;;;;;8.60;6.95;;;19.60;99.90;;;;;;5036071;28;20045;-71
2023/09/09 00:08:54;;;;;;;8.63;6.80;;;19.60;99.90;;;;;;5054147;28;20037;-72
2023/09/09 00:11:21;;;;;;;9.18;6.90;;;19.70;99.90;;;;;;5036010;28;20041;-70
2023/09/09 00:13:46;;;;;;;8.57;6.88;;;19.70;99.90;;;;;;5054002;28;20044;-71
2023/09/09 00:16:12;;;;;;;8.77;6.78;;;19.70;99.90;;;;;;5036489;28;20062;-68
2023/09/09 00:18:38;;;;;;;8.65;6.90;;;19.70;99.90;;;;;;5035789;28;20037;-70
2023/09/09 00:21:07;;;;;;;8.65;6.90;;;19.70;99.90;;;;;;5035892;28;20531;-69
2023/09/09 00:23:33;;;;;;;9.98;6.93;;;19.70;99.90;;;;;;5019750;28;20048;-70
2023/09/09 00:25:58;;;;;;;8.77;7.18;;;19.70;99.90;;;;;;5036114;28;20045;-71
2023/09/09 00:28:24;;;;;;;8.82;6.93;;;19.70;99.90;;;;;;5019458;28;20041;-71
2023/09/09 00:30:50;;;;;;;9.57;8.57;;;19.70;99.90;;;;;;5019173;28;20041;-72
2023/09/09 00:33:16;;;;;;;8.70;7.28;;;19.70;99.90;;;;;;5035737;28;20041;-70
2023/09/09 00:35:42;;;;;;;13.05;11.15;;;19.60;99.90;;;;;;5035850;28;20041;-70
2023/09/09 00:38:11;;;;;;;11.45;10.20;;;19.60;99.90;;;;;;5019188;28;20136;-71
2023/09/09 00:40:37;;;;;;;11.95;10.20;;;19.50;99.90;;;;;;5053347;28;20084;-70
2023/09/09 00:43:03;;;;;;;10.48;8.57;;;19.40;99.90;;;;;;5019131;28;20080;-71
2023/09/09 00:45:28;;;;;;;13.80;11.75;;;19.30;99.90;;;;;;5035310;28;20391;-72
2023/09/09 00:47:55;;;;;;;13.65;10.80;;;19.30;99.90;;;;;;5035383;28;20504;-70
2023/09/09 00:50:23;;;;;;;13.68;12.02;;;19.20;99.90;;;;;;5035831;28;20045;-70
2023/09/09 00:52:49;;;;;;;20.98;18.92;;;19.20;99.90;;;;;;5051979;28;20124;-70
2023/09/09 00:55:15;;;;;;;20.23;17.98;;;19.00;99.90;;;;;;5002505;28;20497;-70
2023/09/09 00:57:41;;;;;;;12.05;9.75;;;18.80;99.90;;;;;;5035293;28;20044;-70
2023/09/09 01:00:11;;;;;;;10.50;8.82;;;18.70;99.90;;;;;;5019003;28;20099;-71
2023/09/09 01:02:40;;;;;;;12.15;9.15;;;18.70;99.90;;;;;;5035722;28;20036;-70
2023/09/09 01:05:13;;;;;;;10.05;8.65;;;18.70;99.90;;;;;;5035189;28;20044;-70
2023/09/09 01:07:46;;;;;;;10.15;9.05;;;18.70;99.90;;;;;;5034301;28;20527;-70
2023/09/09 01:10:13;;;;;;;10.73;9.10;;;18.80;99.90;;;;;;5035296;28;20037;-70
2023/09/09 01:12:42;;;;;;;12.48;8.95;;;18.80;99.90;;;;;;5018880;28;20504;-71
2023/09/09 01:15:09;;;;;;;10.82;8.93;;;18.80;99.90;;;;;;5051726;28;20059;-70
2023/09/09 01:17:36;;;;;;;11.82;9.40;;;18.90;99.90;;;;;;5035067;28;20057;-71
2023/09/09 01:20:15;;;;;;;11.02;8.73;;;18.90;99.90;;;;;;5052906;28;20048;-70
2023/09/09 01:22:43;;;;;;;10.43;8.60;;;19.00;99.90;;;;;;5034980;28;20036;-70
2023/09/09 01:25:10;;;;;;;12.18;8.88;;;18.90;99.90;;;;;;5051971;28;20095;-70
2023/09/09 01:27:36;;;;;;;11.85;9.43;;;19.00;99.90;;;;;;5035358;28;20081;-70
2023/09/09 01:30:03;;;;;;;11.02;9.43;;;18.90;99.90;;;;;;5034957;28;20087;-70
2023/09/09 01:32:29;;;;;;;12.80;11.40;;;18.90;99.90;;;;;;5035120;28;20072;-70
2023/09/09 01:34:55;;;;;;;12.18;10.23;;;18.90;99.90;;;;;;5052770;28;20047;-71
2023/09/09 01:37:21;;;;;;;11.02;9.93;;;18.80;99.90;;;;;;5022538;28;20044;-70
2023/09/09 01:39:50;;;;;;;10.38;9.38;;;18.80;99.90;;;;;;5038728;28;20055;-70
2023/09/09 01:42:16;;;;;;;11.27;9.48;;;18.80;99.90;;;;;;5039141;28;20472;-70
2023/09/09 01:44:46;;;;;;;11.68;9.85;;;18.70;99.90;;;;;;5038916;28;20081;-70
2023/09/09 01:47:15;;;;;;;10.55;9.13;;;18.70;99.90;;;;;;5056676;28;20106;-72
2023/09/09 01:49:44;;;;;;;12.45;9.30;;;18.80;99.90;;;;;;5038968;28;20485;-70
2023/09/09 01:52:09;;;;;;;10.63;9.50;;;18.80;99.90;;;;;;5038700;28;20037;-70
2023/09/09 01:54:35;;;;;;;13.00;9.65;;;18.90;99.90;;;;;;5038705;28;20090;-71
2023/09/09 01:57:02;;;;;;;11.02;9.02;;;18.80;99.90;;;;;;5038539;28;20098;-71
2023/09/09 01:59:30;;;;;;;11.70;9.68;;;18.80;99.90;;;;;;5038748;28;20456;-68
2023/09/09 02:01:56;;;;;;;10.05;8.50;;;18.80;99.90;;;;;;5022822;28;20067;-71
2023/09/09 02:04:22;;;;;;;10.23;8.38;;;18.70;99.90;;;;;;5038254;28;20044;-71
2023/09/09 02:06:48;;;;;;;10.38;8.93;;;18.70;99.90;;;;;;5038517;28;20052;-70
2023/09/09 02:09:14;;;;;;;10.65;8.40;;;18.70;99.90;;;;;;5005561;28;20037;-71
2023/09/09 02:11:39;;;;;;;9.80;8.45;;;18.60;99.90;;;;;;5054952;28;20049;-71
2023/09/09 02:14:05;;;;;;;11.55;10.30;;;18.60;99.90;;;;;;5021791;28;20055;-71
2023/09/09 02:16:31;;;;;;;11.52;9.05;;;18.60;99.90;;;;;;5021719;28;20040;-71
2023/09/09 02:18:58;;;;;;;10.32;8.70;;;18.60;99.90;;;;;;5037926;28;20033;-71
2023/09/09 02:21:23;;;;;;;9.85;8.20;;;18.50;99.90;;;;;;5038431;28;20041;-71
2023/09/09 02:23:49;;;;;;;9.75;8.70;;;18.60;99.90;;;;;;5038262;28;20102;-72
2023/09/09 02:26:15;;;;;;;11.32;8.90;;;18.50;99.90;;;;;;5038175;28;20052;-70
2023/09/09 02:28:41;;;;;;;10.95;9.30;;;18.60;99.90;;;;;;5005554;28;20047;-72
2023/09/09 02:31:07;;;;;;;10.10;8.98;;;18.60;99.90;;;;;;5056076;28;20051;-72
2023/09/09 02:33:32;;;;;;;10.13;8.60;;;18.50;99.90;;;;;;5038153;28;20505;-72
2023/09/09 02:35:59;;;;;;;10.30;8.80;;;18.60;99.90;;;;;;5037911;28;20044;-71
2023/09/09 02:38:26;;;;;;;10.23;8.70;;;18.50;99.90;;;;;;5021452;28;20121;-72
2023/09/09 02:40:52;;;;;;;10.18;8.40;;;18.50;99.90;;;;;;5017961;28;20557;-71
2023/09/09 02:43:18;;;;;;;10.50;9.13;;;18.50;99.90;;;;;;5017959;28;20079;-72
2023/09/09 02:45:43;;;;;;;10.40;8.73;;;18.50;99.90;;;;;;5034160;28;20116;-74
2023/09/09 02:48:12;;;;;;;13.02;11.73;;;18.50;99.90;;;;;;5034544;28;20038;-70
2023/09/09 02:50:38;;;;;;;9.90;8.60;;;18.40;99.90;;;;;;5034346;28;20041;-71
2023/09/09 02:53:04;;;;;;;11.43;9.65;;;18.30;99.90;;;;;;5001412;28;20421;-70
2023/09/09 02:55:29;;;;;;;11.10;9.10;;;18.30;99.90;;;;;;5017526;28;20111;-72
2023/09/09 02:57:55;;;;;;;10.52;8.90;;;18.40;99.90;;;;;;5034188;28;20049;-72
2023/09/09 03:00:21;;;;;;;7.65;5.68;;;18.40;99.90;;;;;;5034052;28;20041;-72
2023/09/09 03:02:49;;;;;;;9.77;8.55;;;18.30;99.90;;;;;;5035629;28;20390;-72
2023/09/09 03:05:15;;;;;;;13.27;11.88;;;18.30;99.90;;;;;;5034273;28;20406;-71
2023/09/09 03:07:45;;;;;;;9.02;7.88;;;18.30;99.90;;;;;;5034332;28;20045;-71
2023/09/09 03:10:11;;;;;;;9.13;8.07;;;18.20;99.90;;;;;;5017868;28;20037;-70
2023/09/09 03:12:37;;;;;;;10.25;7.57;;;18.20;99.90;;;;;;5034205;28;20052;-72
2023/09/09 03:15:05;;;;;;;9.07;7.60;;;18.20;99.90;;;;;;5033777;28;20037;-71
2023/09/09 03:17:31;;;;;;;11.75;10.55;;;18.10;99.90;;;;;;5034053;28;20100;-71
2023/09/09 03:19:57;;;;;;;8.80;7.28;;;18.10;99.90;;;;;;5033787;28;20056;-72
2023/09/09 03:22:23;;;;;;;9.60;7.55;;;18.10;99.90;;;;;;5033922;28;20045;-71
2023/09/09 03:24:49;;;;;;;9.15;8.05;;;18.00;99.90;;;;;;5033969;28;20071;-71
2023/09/09 03:27:15;;;;;;;9.82;7.55;;;18.00;99.90;;;;;;5017191;28;20057;-71
2023/09/09 03:29:41;;;;;;;9.30;7.90;;;18.00;99.90;;;;;;5033830;28;20409;-70
2023/09/09 03:32:07;;;;;;;11.13;9.30;;;18.00;99.90;;;;;;5033926;28;20048;-70
2023/09/09 03:34:33;;;;;;;9.35;7.38;;;18.00;99.90;;;;;;5033629;28;20092;-71
2023/09/09 03:36:58;;;;;;;9.60;8.35;;;18.00;99.90;;;;;;5033369;28;20076;-71
2023/09/09 03:39:24;;;;;;;9.98;7.40;;;18.00;99.90;;;;;;5033577;28;20124;-71
2023/09/09 03:41:50;;;;;;;14.65;13.10;;;18.00;99.90;;;;;;5033239;28;20049;-72
2023/09/09 03:44:16;;;;;;;15.10;13.57;;;18.00;99.90;;;;;;5017040;28;20409;-71
2023/09/09 03:46:41;;;;;;;17.05;15.18;;;17.90;99.90;;;;;;5016745;28;20125;-71
2023/09/09 03:49:07;;;;;;;9.73;8.27;;;17.80;99.90;;;;;;5033313;28;20045;-71
2023/09/09 03:51:36;;;;;;;11.32;9.40;;;17.70;99.90;;;;;;5017019;28;20041;-70
2023/09/09 03:54:02;;;;;;;14.10;12.60;;;17.70;99.90;;;;;;5033054;28;20068;-71
2023/09/09 03:56:28;;;;;;;11.00;9.82;;;17.70;99.90;;;;;;5033044;28;20049;-70
2023/09/09 03:58:54;;;;;;;12.45;11.15;;;17.70;99.90;;;;;;5015884;28;20064;-71
2023/09/09 04:01:19;;;;;;;11.73;10.50;;;17.70;99.90;;;;;;5032970;28;20045;-71
2023/09/09 04:03:45;;;;;;;17.77;15.93;;;17.70;99.90;;;;;;5032978;28;20547;-70
2023/09/09 04:06:12;;;;;;;16.00;14.30;;;17.70;99.90;;;;;;5033083;28;20077;-70
2023/09/09 04:08:39;;;;;;;14.50;13.00;;;17.70;99.90;;;;;;5033200;28;20124;-72
2023/09/09 04:11:06;;;;;;;12.93;11.38;;;17.70;99.90;;;;;;5033150;28;20489;-71
2023/09/09 04:13:32;;;;;;;13.52;12.13;;;17.70;99.90;;;;;;5032589;28;20045;-70
2023/09/09 04:15:59;;;;;;;12.23;10.93;;;17.70;99.90;;;;;;5032870;28;20053;-70
2023/09/09 04:18:26;;;;;;;13.35;11.82;;;17.70;99.90;;;;;;5032675;28;20099;-70
2023/09/09 04:20:52;;;;;;;12.15;10.85;;;17.60;99.90;;;;;;5032936;28;20434;-70
2023/09/09 04:23:18;;;;;;;11.63;10.43;;;17.70;99.90;;;;;;5032518;28;20092;-69
2023/09/09 04:25:45;;;;;;;13.77;11.68;;;17.70;99.90;;;;;;5032952;28;20466;-71
2023/09/09 04:28:11;;;;;;;17.90;12.90;;;17.70;99.90;;;;;;5032411;28;20038;-71
2023/09/09 04:30:41;;;;;;;12.02;10.57;;;17.70;99.90;;;;;;5016366;28;20414;-72
2023/09/09 04:33:11;;;;;;;12.02;10.48;;;17.70;99.90;;;;;;5016785;28;20501;-71
2023/09/09 04:35:42;;;;;;;16.55;13.73;;;17.70;99.90;;;;;;5016474;28;20045;-71
2023/09/09 04:38:09;;;;;;;14.20;11.23;;;17.70;99.90;;;;;;5032564;28;20053;-71
2023/09/09 04:40:53;;;;;;;20.13;18.08;;;17.70;99.90;;;;;;5032192;28;20054;-71
2023/09/09 04:43:20;;;;;;;12.20;10.90;;;17.70;99.90;;;;;;5032178;28;20134;-71
2023/09/09 04:45:46;;;;;;;12.45;10.68;;;17.70;99.90;;;;;;5032142;28;20041;-71
2023/09/09 04:48:12;;;;;;;14.77;13.18;;;17.70;99.90;;;;;;5015905;28;20401;-71
2023/09/09 04:50:38;;;;;;;13.85;12.43;;;17.70;99.90;;;;;;5015679;28;20037;-72
2023/09/09 04:53:05;;;;;;;12.35;11.02;;;17.60;99.90;;;;;;5033474;28;20045;-71
2023/09/09 04:55:34;;;;;;;11.40;10.02;;;17.50;99.90;;;;;;5032244;28;20084;-70
2023/09/09 04:58:00;;;;;;;10.50;9.40;;;17.50;99.90;;;;;;5032185;28;20048;-71
2023/09/09 05:00:27;;;;;;;12.35;11.05;;;17.50;99.90;;;;;;5031949;28;20037;-71
2023/09/09 05:02:53;;;;;;;11.80;9.70;;;17.50;99.90;;;;;;5048599;28;20473;-70
2023/09/09 05:05:18;;;;;;;11.30;10.10;;;17.50;99.90;;;;;;4999612;28;20039;-71
2023/09/09 05:07:44;;;;;;;17.27;15.50;;;17.60;99.90;;;;;;5032187;28;20405;-71
2023/09/09 05:10:10;;;;;;;13.88;12.23;;;17.60;99.90;;;;;;5031869;28;20041;-70
2023/09/09 05:12:36;;;;;;;23.83;21.25;;;17.50;99.90;;;;;;5048495;28;20467;-71
2023/09/09 05:15:04;;;;;;;13.35;11.73;;;17.50;99.90;;;;;;5048717;28;20072;-70
2023/09/09 05:17:30;;;;;;;21.08;18.80;;;17.50;99.90;;;;;;5032021;28;20390;-70
2023/09/09 05:19:56;;;;;;;13.30;11.80;;;17.50;99.90;;;;;;5031791;28;20129;-72
2023/09/09 05:22:25;;;;;;;26.55;23.77;;;17.50;99.90;;;;;;5015931;28;20401;-71
2023/09/09 05:24:51;;;;;;;13.23;11.77;;;17.50;99.90;;;;;;5031791;28;20041;-69
2023/09/09 05:27:17;;;;;;;14.02;12.63;;;17.50;99.90;;;;;;5031893;28;20048;-71
2023/09/09 05:29:43;;;;;;;15.48;13.73;;;17.60;99.90;;;;;;5032001;28;20041;-70
2023/09/09 05:32:09;;;;;;;15.60;13.63;;;17.70;99.90;;;;;;5032061;28;20056;-71
2023/09/09 05:34:35;;;;;;;14.73;13.10;;;17.70;99.90;;;;;;5031944;28;20045;-70
2023/09/09 05:37:01;;;;;;;14.63;13.02;;;17.70;99.90;;;;;;5031701;28;20046;-70
2023/09/09 05:39:26;;;;;;;20.23;18.05;;;17.80;99.90;;;;;;5032277;28;20493;-70
2023/09/09 05:41:53;;;;;;;15.73;13.88;;;17.80;99.90;;;;;;5015326;28;20064;-71
2023/09/09 05:44:18;;;;;;;14.57;11.95;;;17.80;99.90;;;;;;5031888;28;20051;-70
2023/09/09 05:46:44;;;;;;;15.45;12.77;;;17.80;99.90;;;;;;5031883;28;20049;-70
2023/09/09 05:49:10;;;;;;;13.70;12.05;;;17.80;99.90;;;;;;5031869;28;20045;-71
2023/09/09 05:51:36;;;;;;;14.43;12.93;;;17.70;99.90;;;;;;5032070;28;20059;-70
2023/09/09 05:54:01;;;;;;;12.95;11.45;;;17.80;99.90;;;;;;5015459;28;20164;-69
2023/09/09 05:56:27;;;;;;;14.98;13.00;;;17.70;99.90;;;;;;5032890;28;20041;-70
2023/09/09 05:58:53;;;;;;;21.23;18.98;;;17.70;99.90;;;;;;5031646;28;20482;-70
2023/09/09 06:01:19;;;;;;;13.32;11.65;;;17.70;99.90;;;;;;5031784;28;20041;-70
2023/09/09 06:03:45;;;;;;;11.88;10.60;;;17.70;99.90;;;;;;5031498;28;20041;-71
2023/09/09 06:06:10;;;;;;;15.80;14.13;;;17.70;99.90;;;;;;5014992;28;20045;-70
2023/09/09 06:08:36;;;;;;;17.67;15.77;;;17.70;99.90;;;;;;5031627;28;20053;-71
2023/09/09 06:11:02;;;;;;;21.58;19.17;;;17.80;99.90;;;;;;5031680;28;20508;-70
2023/09/09 06:13:28;;;;;;;23.95;21.33;;;18.10;99.90;;;;;;5031355;28;20057;-70
2023/09/09 06:15:54;;;;;;;17.88;16.00;;;18.50;99.90;;;;;;4999039;28;20033;-69
2023/09/09 06:18:20;;;;;;;16.00;14.23;;;18.90;99.90;;;;;;5015219;28;20037;-70
2023/09/09 06:20:47;;;;;;;27.92;25.08;;;19.30;99.90;;;;;;5032631;28;20055;-69
2023/09/09 06:23:14;;;;;;;34.50;31.00;;;19.80;99.90;;;;;;5035375;28;20033;-70
2023/09/09 06:25:43;;;;;;;32.85;29.55;;;20.30;99.90;;;;;;5019084;28;20128;-70
2023/09/09 06:28:09;;;;;;;26.20;23.60;;;21.10;99.90;;;;;;5018510;28;20148;-70
2023/09/09 06:30:34;;;;;;;26.17;23.45;;;21.60;99.90;;;;;;5018402;28;20128;-71
2023/09/09 06:33:04;;;;;;;25.27;22.80;;;22.40;99.90;;;;;;5035209;28;20048;-70
2023/09/09 06:35:30;;;;;;;24.55;22.15;;;22.90;99.90;;;;;;5035249;28;20125;-70
2023/09/09 06:37:56;;;;;;;25.60;23.02;;;23.50;99.90;;;;;;5035271;28;20124;-70
2023/09/09 06:40:22;;;;;;;24.63;22.15;;;23.80;99.90;;;;;;5037764;28;20053;-70
2023/09/09 06:42:48;;;;;;;25.25;22.75;;;24.10;99.90;;;;;;5037768;28;20084;-70
2023/09/09 06:45:14;;;;;;;24.65;21.83;;;24.50;99.90;;;;;;5055451;28;20466;-71
2023/09/09 06:47:40;;;;;;;25.88;23.27;;;24.80;99.90;;;;;;5037946;28;20110;-71
2023/09/09 06:50:06;;;;;;;26.48;23.83;;;24.80;99.90;;;;;;5037703;28;20041;-71
2023/09/09 06:52:32;;;;;;;25.33;22.73;;;25.10;99.90;;;;;;5021220;28;20049;-71
2023/09/09 06:54:58;;;;;;;26.35;23.65;;;25.40;99.90;;;;;;5004921;28;20072;-72
2023/09/09 06:57:23;;;;;;;26.40;23.73;;;25.70;99.90;;;;;;5037610;28;20484;-70
2023/09/09 06:59:50;;;;;;;26.48;23.88;;;25.90;99.90;;;;;;5038058;28;20040;-71
2023/09/09 07:02:16;;;;;;;25.38;22.88;;;26.40;99.90;;;;;;5037617;28;20047;-70
2023/09/09 07:04:41;;;;;;;26.67;23.98;;;26.60;99.90;;;;;;5021133;28;20453;-71
2023/09/09 07:07:07;;;;;;;26.63;23.98;;;26.90;99.90;;;;;;5037370;28;20124;-71
2023/09/09 07:09:33;;;;;;;27.25;24.42;;;27.20;99.90;;;;;;5037718;28;20393;-71
2023/09/09 07:11:59;;;;;;;26.48;23.85;;;27.20;99.90;;;;;;5037203;28;20103;-70
2023/09/09 07:14:25;;;;;;;26.83;24.13;;;27.30;99.90;;;;;;5037275;28;20469;-72
2023/09/09 07:16:51;;;;;;;26.02;23.42;;;27.40;99.90;;;;;;5020873;28;20127;-73
2023/09/09 07:19:18;;;;;;;26.70;24.02;;;27.60;99.90;;;;;;5020980;28;20124;-73
2023/09/09 07:21:43;;;;;;;25.40;22.88;;;27.70;99.90;;;;;;5021320;28;20067;-70
2023/09/09 07:24:09;;;;;;;23.65;21.27;;;27.70;99.90;;;;;;5037649;28;20106;-70
2023/09/09 07:26:35;;;;;;;25.90;23.23;;;27.90;99.90;;;;;;5053670;28;20492;-71
2023/09/09 07:29:01;;;;;;;23.88;21.38;;;27.90;99.90;;;;;;5037155;28;20098;-72
2023/09/09 07:31:28;;;;;;;23.75;21.15;;;27.80;99.90;;;;;;5036900;28;20099;-71
2023/09/09 07:33:54;;;;;;;24.10;21.73;;;27.90;99.90;;;;;;5036073;28;20041;-71
2023/09/09 07:36:21;;;;;;;24.38;21.80;;;27.90;99.90;;;;;;5037029;28;20045;-71
2023/09/09 07:38:47;;;;;;;22.27;19.98;;;27.80;99.70;;;;;;5036972;28;20547;-71
2023/09/09 07:41:12;;;;;;;26.00;23.38;;;27.70;99.80;;;;;;5036452;28;20048;-70
2023/09/09 07:43:42;;;;;;;26.20;23.55;;;27.90;99.10;;;;;;5020273;28;20053;-72
2023/09/09 07:46:08;;;;;;;28.02;24.83;;;27.80;99.40;;;;;;5036815;28;20044;-71
2023/09/09 07:48:34;;;;;;;28.08;25.02;;;27.60;99.50;;;;;;5020323;28;20097;-71
2023/09/09 07:51:06;;;;;;;26.70;24.05;;;27.20;99.90;;;;;;5020447;28;20120;-66
2023/09/09 07:53:32;;;;;;;28.33;25.00;;;27.10;99.90;;;;;;5003726;28;20045;-66
2023/09/09 07:55:58;;;;;;;27.92;25.13;;;26.90;99.90;;;;;;5020206;28;20044;-66
2023/09/09 07:58:23;;;;;;;28.92;26.13;;;27.20;99.90;;;;;;5036375;28;20040;-65
2023/09/09 08:01:03;;;;;;;29.45;26.35;;;26.90;99.90;;;;;;5054086;28;20037;-65
2023/09/09 08:03:30;;;;;;;28.45;25.58;;;26.80;99.90;;;;;;5036241;28;20037;-65
2023/09/09 08:05:56;;;;;;;27.60;24.80;;;26.80;99.90;;;;;;5036494;28;20481;-65
2023/09/09 08:08:23;;;;;;;30.52;27.42;;;26.80;99.90;;;;;;5019825;28;20037;-66
2023/09/09 08:10:58;;;;;;;29.10;26.10;;;26.70;99.90;;;;;;5036407;28;20041;-66
2023/09/09 08:13:25;;;;;;;29.95;26.88;;;26.50;99.90;;;;;;5005419;28;20047;-64
2023/09/09 08:15:51;;;;;;;30.38;27.38;;;26.50;99.90;;;;;;5019579;28;20101;-65
2023/09/09 08:18:16;;;;;;;28.73;25.77;;;26.40;99.90;;;;;;5035904;28;20400;-66
2023/09/09 08:20:43;;;;;;;28.48;25.58;;;26.50;99.90;;;;;;5035930;28;20546;-65
2023/09/09 08:23:09;;;;;;;29.95;26.75;;;26.70;99.90;;;;;;5035809;28;20041;-66
2023/09/09 08:25:34;;;;;;;25.60;22.95;;;26.90;99.90;;;;;;5035769;28;20099;-66
2023/09/09 08:28:03;;;;;;;26.40;23.80;;;27.20;99.90;;;;;;5035843;28;20053;-65
2023/09/09 08:30:30;;;;;;;27.08;24.20;;;27.40;99.90;;;;;;5035691;28;20048;-66
2023/09/09 08:32:59;;;;;;;28.80;26.00;;;27.70;99.90;;;;;;5035993;28;20644;-65
2023/09/09 08:35:25;;;;;;;29.83;26.80;;;27.70;99.90;;;;;;5035558;28;20041;-66
2023/09/09 08:37:51;;;;;;;26.55;23.90;;;27.70;99.90;;;;;;5019527;28;20044;-66
2023/09/09 08:40:19;;;;;;;27.15;24.45;;;27.70;99.90;;;;;;5034701;28;20033;-65
2023/09/09 08:43:06;;;;;;;26.88;24.20;;;27.70;99.90;;;;;;5035491;28;20071;-64
2023/09/09 08:45:46;;;;;;;29.35;26.40;;;27.80;99.90;;;;;;5017724;28;20060;-65
2023/09/09 08:48:18;;;;;;;30.08;27.23;;;27.60;99.90;;;;;;5053360;28;20036;-66
2023/09/09 08:50:50;;;;;;;26.85;24.13;;;27.80;99.90;;;;;;5019520;28;20490;-65
2023/09/09 08:53:20;;;;;;;26.23;23.70;;;27.60;99.90;;;;;;5035434;28;20040;-66
2023/09/09 08:55:46;;;;;;;23.85;21.35;;;27.60;99.90;;;;;;5019139;28;20033;-66
2023/09/09 08:58:13;;;;;;;24.60;22.10;;;27.80;99.90;;;;;;5035272;28;20041;-65
2023/09/09 09:00:39;;;;;;;26.60;23.77;;;27.90;99.90;;;;;;5035703;28;20041;-66
2023/09/09 09:03:05;;;;;;;24.35;21.95;;;28.20;99.90;;;;;;5035482;28;20048;-65
2023/09/09 09:05:38;;;;;;;23.30;20.90;;;28.20;99.90;;;;;;5035439;28;20055;-66
2023/09/09 09:08:16;;;;;;;25.75;23.02;;;28.40;99.90;;;;;;5019379;28;20583;-66
2023/09/09 09:10:47;;;;;;;27.63;24.88;;;28.40;99.80;;;;;;5035062;28;20079;-65
2023/09/09 09:13:13;;;;;;;22.92;20.50;;;28.40;99.80;;;;;;5035649;28;20055;-66
2023/09/09 09:15:45;;;;;;;22.08;19.13;;;28.40;99.10;;;;;;5018759;28;20044;-65
2023/09/09 09:18:11;;;;;;;25.88;21.40;;;28.50;99.50;;;;;;5035266;28;20044;-66
2023/09/09 09:20:40;;;;;;;24.45;21.83;;;28.50;99.50;;;;;;5052818;28;20044;-66
2023/09/09 09:23:09;;;;;;;20.42;18.33;;;28.40;99.50;;;;;;5035348;28;20132;-67
2023/09/09 09:25:44;;;;;;;20.73;18.60;;;28.50;99.80;;;;;;5034871;28;20049;-67
2023/09/09 09:28:14;;;;;;;19.67;17.67;;;28.60;99.00;;;;;;5035210;28;20045;-66
2023/09/09 09:30:41;;;;;;;21.80;19.45;;;28.60;99.50;;;;;;5053181;28;20033;-64
2023/09/09 09:33:07;;;;;;;20.90;18.77;;;28.70;99.10;;;;;;5034756;28;20045;-65
2023/09/09 09:35:35;;;;;;;17.83;15.82;;;28.60;99.70;;;;;;5035007;28;20140;-65
2023/09/09 09:38:03;;;;;;;19.42;17.42;;;28.60;99.90;;;;;;5035193;28;20052;-65
2023/09/09 09:40:33;;;;;;;20.35;18.13;;;28.80;99.30;;;;;;5035135;28;20091;-66
2023/09/09 09:42:59;;;;;;;20.92;18.80;;;28.80;99.80;;;;;;5011902;28;20097;-66
2023/09/09 09:45:27;;;;;;;18.92;16.88;;;28.90;99.90;;;;;;5020249;28;20069;-66
2023/09/09 09:47:55;;;;;;;20.73;17.63;;;28.90;99.40;;;;;;4995511;28;20077;-66
2023/09/09 09:50:30;;;;;;;16.83;15.05;;;28.90;98.90;;;;;;4958936;28;20046;-66
2023/09/09 09:53:05;;;;;;;18.02;15.65;;;29.10;98.60;;;;;;4985769;28;20038;-65
2023/09/09 09:55:32;;;;;;;17.75;15.38;;;29.20;98.70;;;;;;5012244;28;20041;-66
2023/09/09 09:58:02;;;;;;;18.92;16.92;;;29.20;98.40;;;;;;5015808;28;20154;-66
2023/09/09 10:00:31;;;;;;;19.23;16.55;;;29.20;98.60;;;;;;5015512;28;20046;-66
2023/09/09 10:03:00;;;;;;;18.58;16.35;;;29.20;98.30;;;;;;5015684;28;20466;-66
2023/09/09 10:05:27;;;;;;;17.02;15.15;;;29.10;98.40;;;;;;5015374;28;20042;-65
2023/09/09 10:08:06;;;;;;;18.67;15.50;;;29.20;98.90;;;;;;5015607;28;20038;-65
2023/09/09 10:10:35;;;;;;;16.95;13.57;;;29.20;99.10;;;;;;5015640;28;20045;-66
2023/09/09 10:13:22;;;;;;;15.45;12.88;;;29.30;99.30;;;;;;5015287;28;20046;-65
2023/09/09 10:15:49;;;;;;;14.88;12.57;;;29.30;98.60;;;;;;5015116;28;20088;-67
2023/09/09 10:18:16;;;;;;;15.20;12.02;;;29.50;98.50;;;;;;5015077;28;20041;-65
2023/09/09 10:20:42;;;;;;;14.98;11.38;;;29.60;98.20;;;;;;5015052;28;20041;-65
2023/09/09 10:23:08;;;;;;;14.05;10.60;;;29.60;98.00;;;;;;5015328;28;20421;-65
2023/09/09 10:25:34;;;;;;;15.73;10.95;;;29.70;97.80;;;;;;4998881;28;20053;-66
2023/09/09 10:28:01;;;;;;;15.65;11.77;;;29.60;97.60;;;;;;5014970;28;20057;-66
2023/09/09 10:30:28;;;;;;;13.95;11.65;;;29.70;97.50;;;;;;5014890;28;20191;-65
2023/09/09 10:32:58;;;;;;;14.90;11.65;;;29.70;97.30;;;;;;5014886;28;20042;-66
2023/09/09 10:35:24;;;;;;;15.43;13.02;;;29.80;98.10;;;;;;5016477;28;20060;-65
2023/09/09 10:37:50;;;;;;;18.73;12.80;;;29.80;98.40;;;;;;5015356;28;20553;-66
2023/09/09 10:40:17;;;;;;;15.77;12.45;;;29.90;98.40;;;;;;5014877;28;20041;-66
2023/09/09 10:42:45;;;;;;;20.67;15.27;;;29.80;97.80;;;;;;5032363;28;20053;-65
2023/09/09 10:45:26;;;;;;;16.85;13.50;;;29.90;97.50;;;;;;5018023;28;20068;-66
2023/09/09 10:48:10;;;;;;;16.48;14.43;;;29.90;98.00;;;;;;5034605;28;20045;-65
2023/09/09 10:50:45;;;;;;;18.38;14.57;;;29.80;98.30;;;;;;5034171;28;20047;-65
2023/09/09 10:53:26;;;;;;;15.90;13.27;;;30.00;98.60;;;;;;5034311;28;20052;-65
2023/09/09 10:55:58;;;;;;;16.08;14.23;;;30.10;98.60;;;;;;5034231;28;20042;-65
2023/09/09 10:58:35;;;;;;;15.25;13.50;;;30.10;98.60;;;;;;5035586;28;20092;-66
2023/09/09 11:01:02;;;;;;;16.77;15.02;;;30.20;97.90;;;;;;5017928;28;20131;-66
2023/09/09 11:03:41;;;;;;;15.75;13.73;;;30.30;98.40;;;;;;5035643;28;20038;-65
2023/09/09 11:06:20;;;;;;;20.45;14.30;;;30.20;98.70;;;;;;5033746;28;20077;-66
2023/09/09 11:08:47;;;;;;;15.98;13.07;;;30.40;98.00;;;;;;5034295;28;20371;-66
2023/09/09 11:11:18;;;;;;;15.23;13.05;;;30.40;98.20;;;;;;5034351;28;20053;-66
2023/09/09 11:13:48;;;;;;;15.60;11.52;;;30.40;96.80;;;;;;5034130;28;20069;-66
2023/09/09 11:16:26;;;;;;;16.13;12.68;;;30.20;96.70;;;;;;5033937;28;20045;-66
2023/09/09 11:18:55;;;;;;;15.27;10.55;;;30.20;96.80;;;;;;5033791;28;20037;-64
2023/09/09 11:21:24;;;;;;;17.20;14.05;;;30.10;97.20;;;;;;5033838;28;20080;-66
2023/09/09 11:23:53;;;;;;;16.05;13.23;;;30.10;97.00;;;;;;5033775;28;20037;-65
2023/09/09 11:26:19;;;;;;;18.00;14.73;;;30.10;96.90;;;;;;5033938;28;20040;-64
2023/09/09 11:28:57;;;;;;;16.45;13.95;;;30.20;97.30;;;;;;5033606;28;20046;-69
2023/09/09 11:31:33;;;;;;;18.80;15.50;;;30.10;96.80;;;;;;5017462;28;20045;-68
2023/09/09 11:33:59;;;;;;;16.20;14.50;;;30.20;96.90;;;;;;5033466;28;20049;-67
2023/09/09 11:36:25;;;;;;;15.55;13.80;;;30.10;97.30;;;;;;5017298;28;20547;-69
2023/09/09 11:38:53;;;;;;;16.10;13.43;;;30.10;96.90;;;;;;5033367;28;20084;-66
2023/09/09 11:41:23;;;;;;;22.50;17.30;;;30.10;97.20;;;;;;5033218;28;20084;-66
2023/09/09 11:44:03;;;;;;;16.45;13.95;;;30.20;97.90;;;;;;5017153;28;20482;-66
2023/09/09 11:46:36;;;;;;;19.90;16.55;;;30.20;97.30;;;;;;5034956;28;20088;-69
2023/09/09 11:49:03;;;;;;;15.77;9.30;;;30.20;97.00;;;;;;5033311;28;20148;-67
2023/09/09 11:51:29;;;;;;;12.02;7.40;;;30.30;96.70;;;;;;5017186;28;20095;-67
2023/09/09 11:53:55;;;;;;;13.65;7.70;;;30.40;95.70;;;;;;5033082;28;20120;-65
2023/09/09 11:56:21;;;;;;;12.40;8.40;;;30.30;96.10;;;;;;5033186;28;20041;-66
2023/09/09 11:58:48;;;;;;;16.45;9.10;;;30.30;95.90;;;;;;5033001;28;20512;-67
2023/09/09 12:01:14;;;;;;;16.10;10.23;;;30.40;95.90;;;;;;5033001;28;20034;-67
2023/09/09 12:03:40;;;;;;;14.90;9.73;;;30.40;96.00;;;;;;5016522;28;20374;-66
2023/09/09 12:06:08;;;;;;;13.98;11.25;;;30.40;96.30;;;;;;5032813;28;20128;-68
2023/09/09 12:08:34;;;;;;;14.50;10.20;;;30.50;96.40;;;;;;5032837;28;20088;-68
2023/09/09 12:11:03;;;;;;;15.80;12.10;;;30.50;96.40;;;;;;5016716;28;20037;-68
2023/09/09 12:13:30;;;;;;;16.23;12.40;;;30.50;96.50;;;;;;5008893;28;20045;-67
2023/09/09 12:15:57;;;;;;;15.75;12.05;;;30.50;96.00;;;;;;5038706;28;20045;-66
2023/09/09 12:18:22;;;;;;;15.20;11.27;;;30.50;95.90;;;;;;5032096;28;20072;-66
2023/09/09 12:21:21;;;;;;;15.68;12.73;;;30.60;95.40;;;;;;5032662;28;20123;-66
2023/09/09 12:23:47;;;;;;;16.15;11.82;;;30.40;94.70;;;;;;4973594;28;20123;-66
2023/09/09 12:26:17;;;;;;;15.40;11.55;;;30.50;95.40;;;;;;5032524;28;20040;-65
2023/09/09 12:28:45;;;;;;;15.00;10.50;;;30.50;95.30;;;;;;5032798;28;20533;-66
2023/09/09 12:31:12;;;;;;;16.27;11.27;;;30.40;95.40;;;;;;5032623;28;20042;-66
2023/09/09 12:33:47;;;;;;;14.27;10.07;;;30.40;95.70;;;;;;5015935;28;20045;-66